sensor_id;sensor_type;location;lat;lon;timestamp;P1;durP1;ratioP1;P2;durP2;ratioP2
9904;SDS011;4991;43.566;27.820;2023-06-22T00:01:27;9.13;;;8.23;;
9904;SDS011;4991;43.566;27.820;2023-06-22T00:03:53;12.37;;;10.03;;
9904;SDS011;4991;43.566;27.820;2023-06-22T00:06:19;13.17;;;9.20;;
9904;SDS011;4991;43.566;27.820;2023-06-22T00:08:45;22.43;;;10.20;;
9904;SDS011;4991;43.566;27.820;2023-06-22T00:11:11;12.60;;;9.13;;
9904;SDS011;4991;43.566;27.820;2023-06-22T00:13:37;13.07;;;9.83;;
9904;SDS011;4991;43.566;27.820;2023-06-22T00:16:03;12.17;;;8.97;;
9904;SDS011;4991;43.566;27.820;2023-06-22T00:18:29;10.37;;;9.20;;
9904;SDS011;4991;43.566;27.820;2023-06-22T00:20:55;13.10;;;9.30;;
9904;SDS011;4991;43.566;27.820;2023-06-22T00:23:24;10.30;;;9.03;;
9904;SDS011;4991;43.566;27.820;2023-06-22T00:25:50;10.13;;;8.93;;
9904;SDS011;4991;43.566;27.820;2023-06-22T00:28:16;12.03;;;9.20;;
9904;SDS011;4991;43.566;27.820;2023-06-22T00:30:42;12.60;;;10.27;;
9904;SDS011;4991;43.566;27.820;2023-06-22T00:33:08;11.43;;;9.60;;
9904;SDS011;4991;43.566;27.820;2023-06-22T00:35:33;11.50;;;9.43;;
9904;SDS011;4991;43.566;27.820;2023-06-22T00:38:00;10.30;;;9.10;;
9904;SDS011;4991;43.566;27.820;2023-06-22T00:40:26;11.97;;;9.97;;
9904;SDS011;4991;43.566;27.820;2023-06-22T00:42:53;12.97;;;9.20;;
9904;SDS011;4991;43.566;27.820;2023-06-22T00:45:20;10.67;;;9.30;;
9904;SDS011;4991;43.566;27.820;2023-06-22T00:47:57;11.37;;;9.93;;
9904;SDS011;4991;43.566;27.820;2023-06-22T00:50:27;11.80;;;9.13;;
9904;SDS011;4991;43.566;27.820;2023-06-22T00:52:58;10.13;;;9.10;;
9904;SDS011;4991;43.566;27.820;2023-06-22T00:55:33;12.23;;;10.00;;
9904;SDS011;4991;43.566;27.820;2023-06-22T00:58:04;10.77;;;9.47;;
9904;SDS011;4991;43.566;27.820;2023-06-22T01:00:33;13.73;;;9.67;;
9904;SDS011;4991;43.566;27.820;2023-06-22T01:02:59;13.33;;;9.63;;
9904;SDS011;4991;43.566;27.820;2023-06-22T01:05:24;11.87;;;10.47;;
9904;SDS011;4991;43.566;27.820;2023-06-22T01:13:26;13.10;;;9.97;;
9904;SDS011;4991;43.566;27.820;2023-06-22T01:16:03;12.07;;;10.37;;
9904;SDS011;4991;43.566;27.820;2023-06-22T01:18:41;11.53;;;9.43;;
9904;SDS011;4991;43.566;27.820;2023-06-22T01:21:09;17.17;;;10.47;;
9904;SDS011;4991;43.566;27.820;2023-06-22T01:28:54;11.23;;;10.13;;
9904;SDS011;4991;43.566;27.820;2023-06-22T01:31:23;12.37;;;9.97;;
9904;SDS011;4991;43.566;27.820;2023-06-22T01:33:55;12.10;;;9.87;;
9904;SDS011;4991;43.566;27.820;2023-06-22T01:36:26;13.53;;;9.67;;
9904;SDS011;4991;43.566;27.820;2023-06-22T01:38:52;10.50;;;9.40;;
9904;SDS011;4991;43.566;27.820;2023-06-22T01:41:21;14.37;;;9.93;;
9904;SDS011;4991;43.566;27.820;2023-06-22T01:43:49;13.97;;;10.93;;
9904;SDS011;4991;43.566;27.820;2023-06-22T01:46:16;11.47;;;9.77;;
9904;SDS011;4991;43.566;27.820;2023-06-22T01:48:44;11.73;;;10.23;;
9904;SDS011;4991;43.566;27.820;2023-06-22T01:51:11;15.43;;;10.07;;
9904;SDS011;4991;43.566;27.820;2023-06-22T01:53:37;16.20;;;11.03;;
9904;SDS011;4991;43.566;27.820;2023-06-22T01:56:03;11.30;;;10.10;;
9904;SDS011;4991;43.566;27.820;2023-06-22T01:58:29;13.07;;;10.57;;
9904;SDS011;4991;43.566;27.820;2023-06-22T02:00:58;12.50;;;10.27;;
9904;SDS011;4991;43.566;27.820;2023-06-22T02:03:34;13.37;;;9.87;;
9904;SDS011;4991;43.566;27.820;2023-06-22T02:06:05;12.93;;;10.57;;
9904;SDS011;4991;43.566;27.820;2023-06-22T02:08:46;13.10;;;10.43;;
9904;SDS011;4991;43.566;27.820;2023-06-22T02:11:16;15.43;;;10.53;;
9904;SDS011;4991;43.566;27.820;2023-06-22T02:13:45;13.37;;;9.90;;
9904;SDS011;4991;43.566;27.820;2023-06-22T02:16:11;11.07;;;9.97;;
9904;SDS011;4991;43.566;27.820;2023-06-22T02:18:45;14.93;;;9.87;;
9904;SDS011;4991;43.566;27.820;2023-06-22T02:21:12;14.00;;;10.23;;
9904;SDS011;4991;43.566;27.820;2023-06-22T02:23:37;10.23;;;9.13;;
9904;SDS011;4991;43.566;27.820;2023-06-22T02:26:03;14.67;;;10.30;;
9904;SDS011;4991;43.566;27.820;2023-06-22T02:28:29;14.00;;;9.90;;
9904;SDS011;4991;43.566;27.820;2023-06-22T02:30:54;13.07;;;10.33;;
9904;SDS011;4991;43.566;27.820;2023-06-22T02:33:20;13.93;;;9.57;;
9904;SDS011;4991;43.566;27.820;2023-06-22T02:35:46;12.17;;;9.77;;
9904;SDS011;4991;43.566;27.820;2023-06-22T02:38:14;12.77;;;10.47;;
9904;SDS011;4991;43.566;27.820;2023-06-22T02:40:40;13.03;;;11.17;;
9904;SDS011;4991;43.566;27.820;2023-06-22T02:43:06;14.00;;;10.53;;
9904;SDS011;4991;43.566;27.820;2023-06-22T02:45:31;13.73;;;10.70;;
9904;SDS011;4991;43.566;27.820;2023-06-22T02:47:57;12.43;;;10.60;;
9904;SDS011;4991;43.566;27.820;2023-06-22T02:50:23;12.20;;;10.37;;
9904;SDS011;4991;43.566;27.820;2023-06-22T02:52:49;12.63;;;9.93;;
9904;SDS011;4991;43.566;27.820;2023-06-22T02:55:14;14.00;;;10.47;;
9904;SDS011;4991;43.566;27.820;2023-06-22T02:57:40;16.23;;;10.00;;
9904;SDS011;4991;43.566;27.820;2023-06-22T03:00:09;12.77;;;9.87;;
9904;SDS011;4991;43.566;27.820;2023-06-22T03:02:43;13.10;;;10.07;;
9904;SDS011;4991;43.566;27.820;2023-06-22T03:05:11;13.53;;;10.60;;
9904;SDS011;4991;43.566;27.820;2023-06-22T03:07:42;13.13;;;10.50;;
9904;SDS011;4991;43.566;27.820;2023-06-22T03:10:09;12.07;;;10.77;;
9904;SDS011;4991;43.566;27.820;2023-06-22T03:12:36;13.97;;;11.03;;
9904;SDS011;4991;43.566;27.820;2023-06-22T03:15:03;14.23;;;11.53;;
9904;SDS011;4991;43.566;27.820;2023-06-22T03:17:34;12.73;;;10.57;;
9904;SDS011;4991;43.566;27.820;2023-06-22T03:20:01;12.50;;;9.83;;
9904;SDS011;4991;43.566;27.820;2023-06-22T03:22:33;14.23;;;10.63;;
9904;SDS011;4991;43.566;27.820;2023-06-22T03:25:00;13.10;;;10.20;;
9904;SDS011;4991;43.566;27.820;2023-06-22T03:27:25;12.90;;;9.83;;
9904;SDS011;4991;43.566;27.820;2023-06-22T03:29:51;15.57;;;11.07;;
9904;SDS011;4991;43.566;27.820;2023-06-22T03:32:16;13.00;;;10.63;;
9904;SDS011;4991;43.566;27.820;2023-06-22T03:34:42;16.03;;;10.47;;
9904;SDS011;4991;43.566;27.820;2023-06-22T03:37:13;16.47;;;10.37;;
9904;SDS011;4991;43.566;27.820;2023-06-22T03:39:40;13.13;;;11.73;;
9904;SDS011;4991;43.566;27.820;2023-06-22T03:42:08;17.23;;;11.20;;
9904;SDS011;4991;43.566;27.820;2023-06-22T03:44:36;15.73;;;10.47;;
9904;SDS011;4991;43.566;27.820;2023-06-22T03:47:05;13.70;;;10.27;;
9904;SDS011;4991;43.566;27.820;2023-06-22T03:49:33;11.67;;;10.50;;
9904;SDS011;4991;43.566;27.820;2023-06-22T03:52:01;17.83;;;10.67;;
9904;SDS011;4991;43.566;27.820;2023-06-22T03:54:28;14.13;;;10.73;;
9904;SDS011;4991;43.566;27.820;2023-06-22T03:56:54;13.57;;;11.20;;
9904;SDS011;4991;43.566;27.820;2023-06-22T03:59:21;13.50;;;10.80;;
9904;SDS011;4991;43.566;27.820;2023-06-22T04:01:48;14.13;;;10.73;;
9904;SDS011;4991;43.566;27.820;2023-06-22T04:04:14;14.53;;;11.13;;
9904;SDS011;4991;43.566;27.820;2023-06-22T04:06:41;11.63;;;9.83;;
9904;SDS011;4991;43.566;27.820;2023-06-22T04:09:07;15.43;;;11.40;;
9904;SDS011;4991;43.566;27.820;2023-06-22T04:11:33;13.33;;;10.57;;
9904;SDS011;4991;43.566;27.820;2023-06-22T04:13:59;12.80;;;10.50;;
9904;SDS011;4991;43.566;27.820;2023-06-22T04:16:25;15.70;;;10.33;;
9904;SDS011;4991;43.566;27.820;2023-06-22T04:18:51;12.57;;;10.63;;
9904;SDS011;4991;43.566;27.820;2023-06-22T04:21:17;12.97;;;10.73;;
9904;SDS011;4991;43.566;27.820;2023-06-22T04:23:46;13.87;;;10.43;;
9904;SDS011;4991;43.566;27.820;2023-06-22T04:26:12;12.70;;;10.47;;
9904;SDS011;4991;43.566;27.820;2023-06-22T04:28:39;14.80;;;10.87;;
9904;SDS011;4991;43.566;27.820;2023-06-22T04:31:05;13.83;;;11.47;;
9904;SDS011;4991;43.566;27.820;2023-06-22T04:33:31;15.37;;;12.17;;
9904;SDS011;4991;43.566;27.820;2023-06-22T04:35:58;18.63;;;11.67;;
9904;SDS011;4991;43.566;27.820;2023-06-22T04:38:29;20.10;;;12.43;;
9904;SDS011;4991;43.566;27.820;2023-06-22T04:40:58;16.47;;;11.57;;
9904;SDS011;4991;43.566;27.820;2023-06-22T04:43:26;20.27;;;13.03;;
9904;SDS011;4991;43.566;27.820;2023-06-22T04:45:56;20.70;;;12.67;;
9904;SDS011;4991;43.566;27.820;2023-06-22T04:48:29;26.63;;;12.40;;
9904;SDS011;4991;43.566;27.820;2023-06-22T04:50:59;19.70;;;11.43;;
9904;SDS011;4991;43.566;27.820;2023-06-22T04:53:30;18.30;;;11.77;;
9904;SDS011;4991;43.566;27.820;2023-06-22T04:55:56;15.70;;;12.60;;
9904;SDS011;4991;43.566;27.820;2023-06-22T04:58:22;16.27;;;11.80;;
9904;SDS011;4991;43.566;27.820;2023-06-22T05:00:52;17.03;;;11.63;;
9904;SDS011;4991;43.566;27.820;2023-06-22T05:03:17;18.13;;;12.00;;
9904;SDS011;4991;43.566;27.820;2023-06-22T05:05:44;12.10;;;10.57;;
9904;SDS011;4991;43.566;27.820;2023-06-22T05:08:11;16.10;;;11.37;;
9904;SDS011;4991;43.566;27.820;2023-06-22T05:10:37;12.43;;;10.67;;
9904;SDS011;4991;43.566;27.820;2023-06-22T05:13:03;13.77;;;11.00;;
9904;SDS011;4991;43.566;27.820;2023-06-22T05:15:29;21.37;;;11.83;;
9904;SDS011;4991;43.566;27.820;2023-06-22T05:17:58;15.87;;;10.37;;
9904;SDS011;4991;43.566;27.820;2023-06-22T05:20:24;16.00;;;10.90;;
9904;SDS011;4991;43.566;27.820;2023-06-22T05:22:50;11.53;;;8.70;;
9904;SDS011;4991;43.566;27.820;2023-06-22T05:25:16;10.87;;;8.87;;
9904;SDS011;4991;43.566;27.820;2023-06-22T05:27:42;9.27;;;8.33;;
9904;SDS011;4991;43.566;27.820;2023-06-22T05:30:09;9.97;;;8.90;;
9904;SDS011;4991;43.566;27.820;2023-06-22T05:32:36;14.03;;;8.50;;
9904;SDS011;4991;43.566;27.820;2023-06-22T05:35:02;10.77;;;8.77;;
9904;SDS011;4991;43.566;27.820;2023-06-22T05:37:29;10.95;;;8.68;;
9904;SDS011;4991;43.566;27.820;2023-06-22T05:39:55;12.90;;;8.77;;
9904;SDS011;4991;43.566;27.820;2023-06-22T05:42:23;14.43;;;8.30;;
9904;SDS011;4991;43.566;27.820;2023-06-22T05:44:51;9.77;;;8.77;;
9904;SDS011;4991;43.566;27.820;2023-06-22T05:47:18;9.07;;;8.13;;
9904;SDS011;4991;43.566;27.820;2023-06-22T05:49:44;18.87;;;10.50;;
9904;SDS011;4991;43.566;27.820;2023-06-22T05:52:10;11.20;;;9.45;;
9904;SDS011;4991;43.566;27.820;2023-06-22T05:54:36;11.07;;;8.75;;
9904;SDS011;4991;43.566;27.820;2023-06-22T05:57:04;11.23;;;8.10;;
9904;SDS011;4991;43.566;27.820;2023-06-22T05:59:29;8.65;;;7.25;;
9904;SDS011;4991;43.566;27.820;2023-06-22T06:01:55;10.63;;;7.55;;
9904;SDS011;4991;43.566;27.820;2023-06-22T06:04:20;13.88;;;8.57;;
9904;SDS011;4991;43.566;27.820;2023-06-22T06:06:46;8.88;;;7.15;;
9904;SDS011;4991;43.566;27.820;2023-06-22T06:09:14;12.27;;;7.90;;
9904;SDS011;4991;43.566;27.820;2023-06-22T06:11:40;13.63;;;8.15;;
9904;SDS011;4991;43.566;27.820;2023-06-22T06:14:06;9.50;;;8.60;;
9904;SDS011;4991;43.566;27.820;2023-06-22T06:16:32;8.80;;;7.32;;
9904;SDS011;4991;43.566;27.820;2023-06-22T06:18:58;9.15;;;6.95;;
9904;SDS011;4991;43.566;27.820;2023-06-22T06:21:25;9.85;;;7.40;;
9904;SDS011;4991;43.566;27.820;2023-06-22T06:23:51;8.40;;;7.57;;
9904;SDS011;4991;43.566;27.820;2023-06-22T06:26:18;11.48;;;7.63;;
9904;SDS011;4991;43.566;27.820;2023-06-22T06:28:53;10.18;;;7.45;;
9904;SDS011;4991;43.566;27.820;2023-06-22T06:31:20;8.88;;;6.65;;
9904;SDS011;4991;43.566;27.820;2023-06-22T06:33:46;8.32;;;6.97;;
9904;SDS011;4991;43.566;27.820;2023-06-22T06:36:12;7.78;;;6.43;;
9904;SDS011;4991;43.566;27.820;2023-06-22T06:38:38;7.35;;;6.57;;
9904;SDS011;4991;43.566;27.820;2023-06-22T06:41:03;6.00;;;5.40;;
9904;SDS011;4991;43.566;27.820;2023-06-22T06:43:29;10.77;;;6.95;;
9904;SDS011;4991;43.566;27.820;2023-06-22T06:45:54;8.57;;;6.88;;
9904;SDS011;4991;43.566;27.820;2023-06-22T06:48:20;6.03;;;5.10;;
9904;SDS011;4991;43.566;27.820;2023-06-22T06:50:46;10.25;;;5.55;;
9904;SDS011;4991;43.566;27.820;2023-06-22T06:53:11;6.32;;;5.72;;
9904;SDS011;4991;43.566;27.820;2023-06-22T06:55:37;6.32;;;5.15;;
9904;SDS011;4991;43.566;27.820;2023-06-22T06:58:02;11.75;;;6.20;;
9904;SDS011;4991;43.566;27.820;2023-06-22T07:00:32;5.45;;;4.93;;
9904;SDS011;4991;43.566;27.820;2023-06-22T07:02:58;5.60;;;5.10;;
9904;SDS011;4991;43.566;27.820;2023-06-22T07:05:24;5.60;;;5.10;;
9904;SDS011;4991;43.566;27.820;2023-06-22T07:07:49;6.13;;;5.53;;
9904;SDS011;4991;43.566;27.820;2023-06-22T07:10:15;5.97;;;5.38;;
9904;SDS011;4991;43.566;27.820;2023-06-22T07:12:40;6.13;;;5.53;;
9904;SDS011;4991;43.566;27.820;2023-06-22T07:15:07;6.13;;;5.50;;
9904;SDS011;4991;43.566;27.820;2023-06-22T07:17:34;5.65;;;4.88;;
9904;SDS011;4991;43.566;27.820;2023-06-22T07:20:00;5.05;;;4.60;;
9904;SDS011;4991;43.566;27.820;2023-06-22T07:22:26;6.97;;;5.60;;
9904;SDS011;4991;43.566;27.820;2023-06-22T07:24:52;7.43;;;5.00;;
9904;SDS011;4991;43.566;27.820;2023-06-22T07:27:17;5.68;;;5.18;;
9904;SDS011;4991;43.566;27.820;2023-06-22T07:29:46;5.57;;;5.07;;
9904;SDS011;4991;43.566;27.820;2023-06-22T07:32:13;9.27;;;6.00;;
9904;SDS011;4991;43.566;27.820;2023-06-22T07:34:39;19.02;;;14.73;;
9904;SDS011;4991;43.566;27.820;2023-06-22T07:37:04;5.65;;;5.05;;
9904;SDS011;4991;43.566;27.820;2023-06-22T07:39:30;7.20;;;5.60;;
9904;SDS011;4991;43.566;27.820;2023-06-22T07:41:55;5.93;;;5.32;;
9904;SDS011;4991;43.566;27.820;2023-06-22T07:44:21;5.60;;;5.10;;
9904;SDS011;4991;43.566;27.820;2023-06-22T07:46:47;7.65;;;5.03;;
9904;SDS011;4991;43.566;27.820;2023-06-22T07:49:12;6.78;;;5.43;;
9904;SDS011;4991;43.566;27.820;2023-06-22T07:51:38;6.88;;;4.88;;
9904;SDS011;4991;43.566;27.820;2023-06-22T07:54:04;6.07;;;4.43;;
9904;SDS011;4991;43.566;27.820;2023-06-22T07:56:29;5.45;;;4.93;;
9904;SDS011;4991;43.566;27.820;2023-06-22T07:58:55;6.30;;;4.80;;
9904;SDS011;4991;43.566;27.820;2023-06-22T08:01:23;5.25;;;4.75;;
9904;SDS011;4991;43.566;27.820;2023-06-22T08:03:49;7.65;;;5.35;;
9904;SDS011;4991;43.566;27.820;2023-06-22T08:06:15;5.80;;;4.68;;
9904;SDS011;4991;43.566;27.820;2023-06-22T08:08:42;7.20;;;4.82;;
9904;SDS011;4991;43.566;27.820;2023-06-22T08:11:10;4.88;;;4.38;;
9904;SDS011;4991;43.566;27.820;2023-06-22T08:13:35;6.85;;;4.70;;
9904;SDS011;4991;43.566;27.820;2023-06-22T08:16:01;5.55;;;4.63;;
9904;SDS011;4991;43.566;27.820;2023-06-22T08:18:27;5.00;;;4.50;;
9904;SDS011;4991;43.566;27.820;2023-06-22T08:20:53;5.40;;;4.90;;
9904;SDS011;4991;43.566;27.820;2023-06-22T08:23:19;5.07;;;4.10;;
9904;SDS011;4991;43.566;27.820;2023-06-22T08:25:45;6.10;;;4.80;;
9904;SDS011;4991;43.566;27.820;2023-06-22T08:28:11;5.00;;;4.50;;
9904;SDS011;4991;43.566;27.820;2023-06-22T08:30:38;5.03;;;4.47;;
9904;SDS011;4991;43.566;27.820;2023-06-22T08:33:04;6.13;;;4.75;;
9904;SDS011;4991;43.566;27.820;2023-06-22T08:35:30;5.30;;;4.80;;
9904;SDS011;4991;43.566;27.820;2023-06-22T08:37:55;5.88;;;4.80;;
9904;SDS011;4991;43.566;27.820;2023-06-22T08:40:22;6.07;;;4.38;;
9904;SDS011;4991;43.566;27.820;2023-06-22T08:42:48;4.78;;;4.38;;
9904;SDS011;4991;43.566;27.820;2023-06-22T08:45:14;4.70;;;4.30;;
9904;SDS011;4991;43.566;27.820;2023-06-22T08:47:41;4.88;;;4.38;;
9904;SDS011;4991;43.566;27.820;2023-06-22T08:50:08;6.60;;;5.63;;
9904;SDS011;4991;43.566;27.820;2023-06-22T08:52:34;5.70;;;5.15;;
9904;SDS011;4991;43.566;27.820;2023-06-22T08:55:01;5.80;;;4.28;;
9904;SDS011;4991;43.566;27.820;2023-06-22T08:57:27;4.93;;;4.15;;
9904;SDS011;4991;43.566;27.820;2023-06-22T08:59:53;5.03;;;4.53;;
9904;SDS011;4991;43.566;27.820;2023-06-22T09:02:23;5.22;;;4.45;;
9904;SDS011;4991;43.566;27.820;2023-06-22T09:04:51;5.72;;;5.22;;
9904;SDS011;4991;43.566;27.820;2023-06-22T09:07:21;4.95;;;4.45;;
9904;SDS011;4991;43.566;27.820;2023-06-22T09:09:48;4.50;;;4.10;;
9904;SDS011;4991;43.566;27.820;2023-06-22T09:12:14;5.35;;;4.43;;
9904;SDS011;4991;43.566;27.820;2023-06-22T09:14:40;4.72;;;4.32;;
9904;SDS011;4991;43.566;27.820;2023-06-22T09:17:06;6.50;;;5.55;;
9904;SDS011;4991;43.566;27.820;2023-06-22T09:19:32;5.60;;;5.00;;
9904;SDS011;4991;43.566;27.820;2023-06-22T09:21:58;6.90;;;5.78;;
9904;SDS011;4991;43.566;27.820;2023-06-22T09:24:25;4.90;;;4.50;;
9904;SDS011;4991;43.566;27.820;2023-06-22T09:26:51;6.47;;;4.90;;
9904;SDS011;4991;43.566;27.820;2023-06-22T09:29:17;5.18;;;4.68;;
9904;SDS011;4991;43.566;27.820;2023-06-22T09:31:44;5.55;;;4.55;;
9904;SDS011;4991;43.566;27.820;2023-06-22T09:34:10;5.05;;;4.55;;
9904;SDS011;4991;43.566;27.820;2023-06-22T09:36:35;6.45;;;4.68;;
9904;SDS011;4991;43.566;27.820;2023-06-22T09:39:02;5.97;;;5.38;;
9904;SDS011;4991;43.566;27.820;2023-06-22T09:41:31;8.60;;;4.47;;
9904;SDS011;4991;43.566;27.820;2023-06-22T09:43:57;4.90;;;4.30;;
9904;SDS011;4991;43.566;27.820;2023-06-22T09:46:23;6.93;;;4.35;;
9904;SDS011;4991;43.566;27.820;2023-06-22T09:48:52;4.85;;;4.45;;
9904;SDS011;4991;43.566;27.820;2023-06-22T09:51:18;4.25;;;3.75;;
9904;SDS011;4991;43.566;27.820;2023-06-22T09:53:45;3.88;;;3.58;;
9904;SDS011;4991;43.566;27.820;2023-06-22T09:56:11;4.40;;;4.00;;
9904;SDS011;4991;43.566;27.820;2023-06-22T09:58:41;4.78;;;4.38;;
9904;SDS011;4991;43.566;27.820;2023-06-22T10:01:07;4.72;;;4.20;;
9904;SDS011;4991;43.566;27.820;2023-06-22T10:03:35;4.88;;;4.15;;
9904;SDS011;4991;43.566;27.820;2023-06-22T10:06:01;4.35;;;3.97;;
9904;SDS011;4991;43.566;27.820;2023-06-22T10:08:27;4.60;;;4.20;;
9904;SDS011;4991;43.566;27.820;2023-06-22T10:10:53;4.65;;;4.25;;
9904;SDS011;4991;43.566;27.820;2023-06-22T10:13:18;4.25;;;3.72;;
9904;SDS011;4991;43.566;27.820;2023-06-22T10:15:44;4.97;;;4.18;;
9904;SDS011;4991;43.566;27.820;2023-06-22T10:18:16;4.43;;;4.05;;
9904;SDS011;4991;43.566;27.820;2023-06-22T10:20:43;4.18;;;3.75;;
9904;SDS011;4991;43.566;27.820;2023-06-22T10:23:09;5.57;;;4.13;;
9904;SDS011;4991;43.566;27.820;2023-06-22T10:25:36;3.83;;;3.47;;
9904;SDS011;4991;43.566;27.820;2023-06-22T10:28:01;4.15;;;3.85;;
9904;SDS011;4991;43.566;27.820;2023-06-22T10:30:27;4.97;;;4.18;;
9904;SDS011;4991;43.566;27.820;2023-06-22T10:32:54;4.80;;;4.40;;
9904;SDS011;4991;43.566;27.820;2023-06-22T10:35:19;4.00;;;3.65;;
9904;SDS011;4991;43.566;27.820;2023-06-22T10:37:45;5.22;;;4.43;;
9904;SDS011;4991;43.566;27.820;2023-06-22T10:40:12;5.53;;;3.80;;
9904;SDS011;4991;43.566;27.820;2023-06-22T10:42:39;4.50;;;3.45;;
9904;SDS011;4991;43.566;27.820;2023-06-22T10:45:05;4.18;;;3.78;;
9904;SDS011;4991;43.566;27.820;2023-06-22T10:47:30;4.53;;;3.88;;
9904;SDS011;4991;43.566;27.820;2023-06-22T10:49:56;4.38;;;3.97;;
9904;SDS011;4991;43.566;27.820;2023-06-22T10:52:22;4.85;;;3.75;;
9904;SDS011;4991;43.566;27.820;2023-06-22T10:54:47;4.00;;;3.60;;
9904;SDS011;4991;43.566;27.820;2023-06-22T10:57:13;4.40;;;4.00;;
9904;SDS011;4991;43.566;27.820;2023-06-22T10:59:39;4.20;;;3.80;;
9904;SDS011;4991;43.566;27.820;2023-06-22T11:02:04;6.53;;;4.50;;
9904;SDS011;4991;43.566;27.820;2023-06-22T11:04:31;4.55;;;4.10;;
9904;SDS011;4991;43.566;27.820;2023-06-22T11:06:57;7.60;;;4.97;;
9904;SDS011;4991;43.566;27.820;2023-06-22T11:09:22;4.25;;;3.85;;
9904;SDS011;4991;43.566;27.820;2023-06-22T11:11:48;5.85;;;4.55;;
9904;SDS011;4991;43.566;27.820;2023-06-22T11:14:15;4.22;;;3.90;;
9904;SDS011;4991;43.566;27.820;2023-06-22T11:16:41;4.93;;;4.30;;
9904;SDS011;4991;43.566;27.820;2023-06-22T11:19:07;5.32;;;4.05;;
9904;SDS011;4991;43.566;27.820;2023-06-22T11:21:32;6.60;;;4.88;;
9904;SDS011;4991;43.566;27.820;2023-06-22T11:23:58;4.45;;;4.15;;
9904;SDS011;4991;43.566;27.820;2023-06-22T11:26:25;4.85;;;4.45;;
9904;SDS011;4991;43.566;27.820;2023-06-22T11:28:54;5.55;;;4.53;;
9904;SDS011;4991;43.566;27.820;2023-06-22T11:31:20;4.28;;;3.88;;
9904;SDS011;4991;43.566;27.820;2023-06-22T11:33:45;4.75;;;4.28;;
9904;SDS011;4991;43.566;27.820;2023-06-22T11:36:12;4.60;;;4.20;;
9904;SDS011;4991;43.566;27.820;2023-06-22T11:38:38;5.05;;;4.30;;
9904;SDS011;4991;43.566;27.820;2023-06-22T11:41:07;4.50;;;4.10;;
9904;SDS011;4991;43.566;27.820;2023-06-22T11:43:34;5.15;;;4.50;;
9904;SDS011;4991;43.566;27.820;2023-06-22T11:46:00;4.90;;;4.50;;
9904;SDS011;4991;43.566;27.820;2023-06-22T11:48:26;5.00;;;4.57;;
9904;SDS011;4991;43.566;27.820;2023-06-22T11:50:52;5.85;;;4.78;;
9904;SDS011;4991;43.566;27.820;2023-06-22T11:53:17;4.75;;;4.35;;
9904;SDS011;4991;43.566;27.820;2023-06-22T11:55:46;5.18;;;4.57;;
9904;SDS011;4991;43.566;27.820;2023-06-22T11:58:11;5.40;;;4.20;;
9904;SDS011;4991;43.566;27.820;2023-06-22T12:00:37;6.38;;;4.72;;
9904;SDS011;4991;43.566;27.820;2023-06-22T12:03:03;4.60;;;4.20;;
9904;SDS011;4991;43.566;27.820;2023-06-22T12:05:29;4.82;;;4.43;;
9904;SDS011;4991;43.566;27.820;2023-06-22T12:07:54;4.82;;;4.32;;
9904;SDS011;4991;43.566;27.820;2023-06-22T12:10:20;5.65;;;4.72;;
9904;SDS011;4991;43.566;27.820;2023-06-22T12:12:48;5.80;;;4.18;;
9904;SDS011;4991;43.566;27.820;2023-06-22T12:15:13;4.63;;;4.20;;
9904;SDS011;4991;43.566;27.820;2023-06-22T12:17:39;5.13;;;4.65;;
9904;SDS011;4991;43.566;27.820;2023-06-22T12:20:06;7.18;;;4.15;;
9904;SDS011;4991;43.566;27.820;2023-06-22T12:22:32;6.88;;;4.20;;
9904;SDS011;4991;43.566;27.820;2023-06-22T12:24:58;4.43;;;4.03;;
9904;SDS011;4991;43.566;27.820;2023-06-22T12:27:24;4.50;;;4.10;;
9904;SDS011;4991;43.566;27.820;2023-06-22T12:29:51;5.55;;;4.28;;
9904;SDS011;4991;43.566;27.820;2023-06-22T12:32:16;5.68;;;4.40;;
9904;SDS011;4991;43.566;27.820;2023-06-22T12:34:42;6.18;;;5.00;;
9904;SDS011;4991;43.566;27.820;2023-06-22T12:37:08;7.35;;;5.07;;
9904;SDS011;4991;43.566;27.820;2023-06-22T12:39:34;6.68;;;5.15;;
9904;SDS011;4991;43.566;27.820;2023-06-22T12:42:00;6.53;;;6.03;;
9904;SDS011;4991;43.566;27.820;2023-06-22T12:44:25;7.32;;;6.30;;
9904;SDS011;4991;43.566;27.820;2023-06-22T12:46:51;7.13;;;6.40;;
9904;SDS011;4991;43.566;27.820;2023-06-22T12:49:17;9.80;;;5.90;;
9904;SDS011;4991;43.566;27.820;2023-06-22T12:51:43;6.50;;;5.65;;
9904;SDS011;4991;43.566;27.820;2023-06-22T12:54:09;6.30;;;5.70;;
9904;SDS011;4991;43.566;27.820;2023-06-22T12:56:35;7.10;;;6.40;;
9904;SDS011;4991;43.566;27.820;2023-06-22T12:59:01;7.43;;;6.82;;
9904;SDS011;4991;43.566;27.820;2023-06-22T13:01:27;6.57;;;5.97;;
9904;SDS011;4991;43.566;27.820;2023-06-22T13:03:53;12.18;;;5.97;;
9904;SDS011;4991;43.566;27.820;2023-06-22T13:06:19;8.00;;;6.28;;
9904;SDS011;4991;43.566;27.820;2023-06-22T13:08:45;5.93;;;5.43;;
9904;SDS011;4991;43.566;27.820;2023-06-22T13:11:10;7.40;;;5.88;;
9904;SDS011;4991;43.566;27.820;2023-06-22T13:13:36;9.15;;;6.50;;
9904;SDS011;4991;43.566;27.820;2023-06-22T13:16:02;6.25;;;5.65;;
9904;SDS011;4991;43.566;27.820;2023-06-22T13:18:27;6.00;;;5.40;;
9904;SDS011;4991;43.566;27.820;2023-06-22T13:20:53;6.38;;;5.65;;
9904;SDS011;4991;43.566;27.820;2023-06-22T13:23:20;6.28;;;5.78;;
9904;SDS011;4991;43.566;27.820;2023-06-22T13:25:46;5.53;;;5.00;;
9904;SDS011;4991;43.566;27.820;2023-06-22T13:28:12;5.63;;;5.13;;
9904;SDS011;4991;43.566;27.820;2023-06-22T13:30:39;6.18;;;5.57;;
9904;SDS011;4991;43.566;27.820;2023-06-22T13:33:06;7.00;;;5.28;;
9904;SDS011;4991;43.566;27.820;2023-06-22T13:35:32;6.43;;;5.82;;
9904;SDS011;4991;43.566;27.820;2023-06-22T13:37:57;6.30;;;5.80;;
9904;SDS011;4991;43.566;27.820;2023-06-22T13:40:23;6.35;;;5.75;;
9904;SDS011;4991;43.566;27.820;2023-06-22T13:42:49;7.40;;;6.70;;
9904;SDS011;4991;43.566;27.820;2023-06-22T13:45:15;7.32;;;6.10;;
9904;SDS011;4991;43.566;27.820;2023-06-22T13:47:42;6.78;;;6.18;;
9904;SDS011;4991;43.566;27.820;2023-06-22T13:50:08;8.10;;;6.95;;
9904;SDS011;4991;43.566;27.820;2023-06-22T13:52:34;6.43;;;5.75;;
9904;SDS011;4991;43.566;27.820;2023-06-22T13:54:59;6.65;;;5.90;;
9904;SDS011;4991;43.566;27.820;2023-06-22T13:57:25;6.40;;;5.75;;
9904;SDS011;4991;43.566;27.820;2023-06-22T13:59:51;6.55;;;5.80;;
9904;SDS011;4991;43.566;27.820;2023-06-22T14:02:16;7.07;;;6.38;;
9904;SDS011;4991;43.566;27.820;2023-06-22T14:04:42;6.53;;;5.93;;
9904;SDS011;4991;43.566;27.820;2023-06-22T14:07:07;8.93;;;6.30;;
9904;SDS011;4991;43.566;27.820;2023-06-22T14:09:33;8.00;;;6.00;;
9904;SDS011;4991;43.566;27.820;2023-06-22T14:12:02;6.30;;;5.70;;
9904;SDS011;4991;43.566;27.820;2023-06-22T14:14:32;5.65;;;5.15;;
9904;SDS011;4991;43.566;27.820;2023-06-22T14:16:58;6.13;;;5.53;;
9904;SDS011;4991;43.566;27.820;2023-06-22T14:19:24;6.15;;;5.63;;
9904;SDS011;4991;43.566;27.820;2023-06-22T14:21:50;6.38;;;5.63;;
9904;SDS011;4991;43.566;27.820;2023-06-22T14:24:17;5.78;;;5.28;;
9904;SDS011;4991;43.566;27.820;2023-06-22T14:26:42;7.28;;;5.95;;
9904;SDS011;4991;43.566;27.820;2023-06-22T14:29:08;5.90;;;5.28;;
9904;SDS011;4991;43.566;27.820;2023-06-22T14:31:34;6.07;;;5.43;;
9904;SDS011;4991;43.566;27.820;2023-06-22T14:33:59;5.00;;;4.60;;
9904;SDS011;4991;43.566;27.820;2023-06-22T14:36:25;5.93;;;5.43;;
9904;SDS011;4991;43.566;27.820;2023-06-22T14:38:51;5.72;;;5.10;;
9904;SDS011;4991;43.566;27.820;2023-06-22T14:41:16;8.73;;;7.47;;
9904;SDS011;4991;43.566;27.820;2023-06-22T14:43:49;5.40;;;4.90;;
9904;SDS011;4991;43.566;27.820;2023-06-22T14:46:16;8.85;;;6.72;;
9904;SDS011;4991;43.566;27.820;2023-06-22T14:48:43;5.35;;;4.72;;
9904;SDS011;4991;43.566;27.820;2023-06-22T14:51:09;5.55;;;4.65;;
9904;SDS011;4991;43.566;27.820;2023-06-22T14:53:35;5.55;;;4.97;;
9904;SDS011;4991;43.566;27.820;2023-06-22T14:56:01;8.65;;;5.57;;
9904;SDS011;4991;43.566;27.820;2023-06-22T14:58:29;4.82;;;4.43;;
9904;SDS011;4991;43.566;27.820;2023-06-22T15:00:59;4.95;;;4.53;;